createdAt,value
2018-09-03T00:02:10.956Z,16.36
2018-09-03T00:04:40.159Z,16.36
2018-09-03T00:07:09.438Z,16.41
2018-09-03T00:09:40.390Z,16.43
2018-09-03T00:12:10.314Z,16.44
2018-09-03T00:14:39.653Z,16.44
2018-09-03T00:17:09.713Z,16.46
2018-09-03T00:19:39.202Z,16.46
2018-09-03T00:22:08.357Z,16.49
2018-09-03T00:24:37.648Z,16.50
2018-09-03T00:27:07.056Z,16.50
2018-09-03T00:29:37.179Z,16.48
2018-09-03T00:33:13.641Z,16.46
2018-09-03T00:35:48.023Z,16.45
2018-09-03T00:38:22.527Z,16.46
2018-09-03T00:40:56.977Z,16.46
2018-09-03T00:43:31.302Z,16.43
2018-09-03T00:46:05.777Z,16.45
2018-09-03T00:48:34.962Z,16.44
2018-09-03T00:51:04.131Z,16.52
2018-09-03T00:53:33.313Z,16.51
2018-09-03T00:56:02.576Z,16.52
2018-09-03T00:58:31.740Z,16.51
2018-09-03T01:01:00.930Z,16.54
2018-09-03T01:03:30.143Z,16.52
2018-09-03T01:05:59.357Z,16.52
2018-09-03T01:08:28.538Z,16.55
2018-09-03T01:10:57.710Z,16.54
2018-09-03T01:13:27.046Z,16.28
2018-09-03T01:15:56.253Z,16.55
2018-09-03T01:18:25.485Z,16.56
2018-09-03T01:20:54.673Z,16.54
2018-09-03T01:23:23.834Z,16.54
2018-09-03T01:25:53.090Z,16.53
2018-09-03T01:28:22.302Z,16.52
2018-09-03T01:30:51.489Z,16.53
2018-09-03T01:33:20.737Z,16.56
2018-09-03T01:35:49.900Z,16.57
2018-09-03T01:38:19.388Z,16.59
2018-09-03T01:40:48.616Z,16.59
2018-09-03T01:43:17.813Z,16.57
2018-09-03T01:45:46.987Z,16.58
2018-09-03T01:48:16.506Z,16.58
2018-09-03T01:50:45.718Z,16.61
2018-09-03T01:53:14.882Z,16.62
2018-09-03T01:55:44.096Z,16.64
2018-09-03T01:58:13.317Z,16.66
2018-09-03T02:00:42.677Z,16.67
2018-09-03T02:03:11.960Z,16.69
2018-09-03T02:05:41.312Z,16.70
2018-09-03T02:08:10.960Z,16.71
2018-09-03T02:10:40.197Z,16.71
2018-09-03T02:13:09.472Z,16.71
2018-09-03T02:15:38.694Z,16.73
2018-09-03T02:18:07.884Z,16.75
2018-09-03T02:20:37.086Z,16.76
2018-09-03T02:23:06.498Z,16.74
2018-09-03T02:25:35.794Z,16.75
2018-09-03T02:28:05.010Z,16.75
2018-09-03T02:30:34.276Z,16.74
2018-09-03T02:33:04.200Z,16.75
2018-09-03T02:35:34.139Z,16.75
2018-09-03T02:38:03.440Z,16.75
2018-09-03T02:40:32.656Z,16.75
2018-09-03T02:43:01.852Z,16.76
2018-09-03T02:45:31.115Z,16.76
2018-09-03T02:48:00.349Z,16.75
2018-09-03T02:50:29.532Z,16.73
2018-09-03T02:52:58.752Z,16.73
2018-09-03T02:55:27.972Z,16.72
2018-09-03T02:57:57.137Z,16.72
2018-09-03T03:00:27.329Z,16.70
2018-09-03T03:02:57.959Z,16.70
2018-09-03T03:05:27.964Z,16.69
2018-09-03T03:07:57.351Z,16.69
2018-09-03T03:10:26.523Z,16.70
2018-09-03T03:12:55.715Z,16.70
2018-09-03T03:15:24.932Z,16.70
2018-09-03T03:17:54.120Z,16.70
2018-09-03T03:20:23.319Z,16.70
2018-09-03T03:22:52.515Z,16.69
2018-09-03T03:25:21.765Z,16.70
2018-09-03T03:27:50.926Z,16.70
2018-09-03T03:30:20.182Z,16.70
2018-09-03T03:32:50.023Z,16.71
2018-09-03T03:35:19.203Z,16.72
2018-09-03T03:37:49.361Z,16.73
2018-09-03T03:40:19.573Z,16.70
2018-09-03T03:42:48.786Z,16.71
2018-09-03T03:45:18.049Z,16.72
2018-09-03T03:47:47.277Z,16.72
2018-09-03T03:50:16.471Z,16.74
2018-09-03T03:52:45.700Z,16.73
2018-09-03T03:55:14.966Z,16.75
2018-09-03T03:57:44.101Z,16.75
2018-09-03T04:00:13.253Z,16.74
2018-09-03T04:02:42.473Z,16.75
2018-09-03T04:05:11.676Z,16.75
2018-09-03T04:07:40.896Z,16.74
2018-09-03T04:10:10.105Z,16.74
2018-09-03T04:12:42.150Z,16.74
2018-09-03T04:15:11.403Z,16.73
2018-09-03T04:17:40.624Z,16.74
2018-09-03T04:20:09.809Z,16.73
2018-09-03T04:22:39.022Z,16.73
2018-09-03T04:25:08.418Z,16.73
2018-09-03T04:27:37.592Z,16.73
2018-09-03T04:30:06.929Z,16.70
2018-09-03T04:32:36.104Z,16.71
2018-09-03T04:35:05.489Z,16.71
2018-09-03T04:37:34.710Z,16.71
2018-09-03T04:40:03.909Z,16.71
2018-09-03T04:42:33.110Z,16.71
2018-09-03T04:45:02.285Z,16.72
2018-09-03T04:47:31.510Z,16.72
2018-09-03T04:50:00.671Z,16.71
2018-09-03T04:52:29.892Z,16.72
2018-09-03T04:54:59.085Z,16.71
2018-09-03T04:57:28.268Z,16.72
2018-09-03T04:59:57.590Z,16.73
2018-09-03T05:02:26.793Z,16.74
2018-09-03T05:04:55.987Z,16.74
2018-09-03T05:07:25.189Z,16.76
2018-09-03T05:09:54.489Z,16.77
2018-09-03T05:12:23.690Z,16.68
2018-09-03T05:14:52.891Z,16.70
2018-09-03T05:17:22.129Z,16.75
2018-09-03T05:19:51.277Z,16.78
2018-09-03T05:22:20.453Z,16.79
2018-09-03T05:24:49.677Z,16.79
2018-09-03T05:27:18.882Z,16.82
2018-09-03T05:29:48.140Z,16.83
2018-09-03T05:32:17.287Z,16.87
2018-09-03T05:34:46.474Z,16.89
2018-09-03T05:37:15.661Z,16.91
2018-09-03T05:39:46.158Z,16.91
2018-09-03T05:42:15.326Z,16.93
2018-09-03T05:44:44.507Z,16.91
2018-09-03T05:47:13.689Z,16.89
2018-09-03T05:49:42.850Z,16.84
2018-09-03T05:52:12.112Z,16.83
2018-09-03T05:54:41.314Z,16.81
2018-09-03T05:57:11.298Z,16.80
2018-09-03T05:59:40.513Z,16.80
2018-09-03T06:02:09.777Z,16.81
2018-09-03T06:04:39.309Z,16.79
2018-09-03T06:07:08.548Z,16.80
2018-09-03T06:09:37.742Z,16.80
2018-09-03T06:12:06.972Z,16.84
2018-09-03T06:14:36.117Z,16.81
2018-09-03T06:17:05.567Z,16.81
2018-09-03T06:19:34.722Z,16.83
2018-09-03T06:22:03.975Z,16.85
2018-09-03T06:24:33.144Z,16.82
2018-09-03T06:27:02.297Z,16.83
2018-09-03T06:29:31.476Z,16.84
2018-09-03T06:32:00.656Z,16.83
2018-09-03T06:34:29.852Z,16.82
2018-09-03T06:36:59.238Z,16.82
2018-09-03T06:39:28.475Z,16.80
2018-09-03T06:41:57.677Z,16.82
2018-09-03T06:44:26.945Z,16.89
2018-09-03T06:46:56.139Z,16.85
2018-09-03T06:49:25.288Z,16.84
2018-09-03T06:51:54.476Z,16.84
2018-09-03T06:54:23.829Z,16.92
2018-09-03T06:56:53.025Z,16.86
2018-09-03T06:59:22.252Z,16.94
2018-09-03T07:01:51.763Z,16.90
2018-09-03T07:04:20.905Z,16.91
2018-09-03T07:06:50.149Z,16.98
2018-09-03T07:09:19.246Z,17.03
2018-09-03T07:11:48.446Z,17.13
2018-09-03T07:14:17.618Z,17.24
2018-09-03T07:16:46.812Z,17.30
2018-09-03T07:19:16.013Z,17.31
2018-09-03T07:21:45.175Z,17.38
2018-09-03T07:24:15.445Z,17.45
2018-09-03T07:26:44.722Z,17.46
2018-09-03T07:29:13.889Z,17.47
2018-09-03T07:31:43.075Z,17.51
2018-09-03T07:34:12.237Z,17.72
2018-09-03T07:36:41.461Z,17.88
2018-09-03T07:39:11.270Z,18.04
2018-09-03T07:41:40.434Z,18.11
2018-09-03T07:44:09.695Z,18.26
2018-09-03T07:46:38.777Z,18.42
2018-09-03T07:49:08.194Z,18.59
2018-09-03T07:51:37.362Z,18.59
2018-09-03T07:54:07.043Z,18.63
2018-09-03T07:56:36.211Z,18.63
2018-09-03T07:59:05.583Z,18.71
2018-09-03T08:01:34.696Z,18.84
2018-09-03T08:04:03.870Z,18.92
2018-09-03T08:06:33.047Z,19.05
2018-09-03T08:09:02.193Z,19.00
2018-09-03T08:11:31.372Z,18.96
2018-09-03T08:14:00.679Z,18.94
2018-09-03T08:16:29.878Z,19.10
2018-09-03T08:18:59.042Z,19.30
2018-09-03T08:21:28.237Z,19.23
2018-09-03T08:23:57.501Z,19.27
2018-09-03T08:26:26.670Z,19.27
2018-09-03T08:28:55.856Z,19.26
2018-09-03T08:31:25.469Z,19.28
2018-09-03T08:33:54.681Z,19.25
2018-09-03T08:36:23.844Z,19.24
2018-09-03T08:38:53.022Z,19.23
2018-09-03T08:41:22.166Z,19.27
2018-09-03T08:43:51.391Z,19.35
2018-09-03T08:46:20.562Z,19.44
2018-09-03T08:48:49.779Z,19.41
2018-09-03T08:51:19.068Z,19.35
2018-09-03T08:53:48.281Z,19.32
2018-09-03T08:56:17.677Z,19.23
2018-09-03T08:58:46.854Z,19.22
2018-09-03T09:01:16.060Z,19.27
2018-09-03T09:03:45.408Z,19.30
2018-09-03T09:06:14.589Z,19.34
2018-09-03T09:08:43.783Z,19.42
2018-09-03T09:11:12.979Z,19.32
2018-09-03T09:13:42.146Z,19.30
2018-09-03T09:16:11.293Z,19.33
2018-09-03T09:18:40.520Z,19.41
2018-09-03T09:21:09.822Z,19.44
2018-09-03T09:23:38.995Z,19.59
2018-09-03T09:26:08.206Z,19.74
2018-09-03T09:28:37.392Z,20.09
2018-09-03T09:31:06.990Z,20.48
2018-09-03T09:33:36.137Z,20.74
2018-09-03T09:36:05.377Z,20.91
2018-09-03T09:38:34.555Z,20.88
2018-09-03T09:41:03.763Z,20.81
2018-09-03T09:43:33.040Z,20.80
2018-09-03T09:46:02.316Z,20.73
2018-09-03T09:48:31.469Z,20.51
2018-09-03T09:51:00.675Z,20.54
2018-09-03T09:53:29.883Z,20.70
2018-09-03T09:55:59.196Z,20.88
2018-09-03T09:58:29.090Z,20.90
2018-09-03T10:01:03.573Z,20.87
2018-09-03T10:03:33.176Z,20.80
2018-09-03T10:06:02.367Z,20.69
2018-09-03T10:08:31.539Z,20.13
2018-09-03T10:11:00.757Z,20.53
2018-09-03T10:13:29.949Z,20.36
2018-09-03T10:15:59.137Z,20.23
2018-09-03T10:18:28.372Z,20.12
2018-09-03T10:20:57.974Z,20.03
2018-09-03T10:23:27.145Z,20.01
2018-09-03T10:25:56.426Z,19.95
2018-09-03T10:28:25.580Z,19.85
2018-09-03T10:30:54.908Z,19.80
2018-09-03T10:33:24.117Z,19.82
2018-09-03T10:35:53.305Z,19.73
2018-09-03T10:38:22.476Z,19.73
2018-09-03T10:40:51.754Z,19.76
2018-09-03T10:43:20.897Z,19.79
2018-09-03T10:45:50.078Z,19.79
2018-09-03T10:48:19.311Z,19.83
2018-09-03T10:50:48.486Z,19.92
2018-09-03T10:53:17.712Z,20.01
2018-09-03T10:55:46.898Z,20.04
2018-09-03T10:58:16.091Z,20.07
2018-09-03T11:00:45.261Z,20.14
2018-09-03T11:03:14.465Z,20.18
2018-09-03T11:05:43.708Z,20.30
2018-09-03T11:08:12.882Z,20.45
2018-09-03T11:10:42.091Z,20.49
2018-09-03T11:13:11.320Z,20.65
2018-09-03T11:15:40.962Z,20.37
2018-09-03T11:18:10.191Z,20.40
2018-09-03T11:20:39.668Z,20.46
2018-09-03T11:23:09.009Z,20.59
2018-09-03T11:25:38.490Z,20.78
2018-09-03T11:28:07.826Z,20.88
2018-09-03T11:30:37.151Z,20.83
2018-09-03T11:33:06.693Z,20.92
2018-09-03T11:35:35.881Z,21.02
2018-09-03T11:38:05.130Z,20.99
2018-09-03T11:40:34.421Z,20.98
2018-09-03T11:43:03.632Z,20.93
2018-09-03T11:45:33.177Z,20.92
2018-09-03T11:48:02.381Z,20.94
2018-09-03T11:50:31.624Z,21.04
2018-09-03T11:53:00.854Z,20.89
2018-09-03T11:55:30.082Z,20.79
2018-09-03T11:57:59.361Z,20.92
2018-09-03T12:00:30.832Z,20.91
2018-09-03T12:03:00.305Z,20.96
2018-09-03T12:05:30.089Z,21.07
2018-09-03T12:07:59.377Z,21.06
2018-09-03T12:10:28.555Z,21.00
2018-09-03T12:12:57.717Z,20.99
2018-09-03T12:15:35.983Z,21.08
2018-09-03T12:18:05.170Z,21.25
2018-09-03T12:20:34.316Z,21.38
2018-09-03T12:23:03.531Z,21.70
2018-09-03T12:25:32.721Z,21.63
2018-09-03T12:28:01.920Z,22.05
2018-09-03T12:30:31.134Z,22.34
2018-09-03T12:33:00.610Z,22.52
2018-09-03T12:35:29.827Z,22.53
2018-09-03T12:37:59.083Z,22.24
2018-09-03T12:40:28.264Z,21.80
2018-09-03T12:42:57.479Z,21.45
2018-09-03T12:45:31.897Z,21.17
2018-09-03T12:48:01.443Z,21.01
2018-09-03T12:50:30.679Z,20.89
2018-09-03T12:52:59.900Z,20.80
2018-09-03T12:55:29.141Z,20.70
2018-09-03T12:57:58.362Z,20.71
2018-09-03T13:00:27.561Z,20.91
2018-09-03T13:02:56.820Z,21.07
2018-09-03T13:05:25.969Z,21.09
2018-09-03T13:07:55.179Z,21.16
2018-09-03T13:10:24.519Z,21.06
2018-09-03T13:12:53.773Z,21.13
2018-09-03T13:15:23.081Z,21.44
2018-09-03T13:17:52.296Z,21.57
2018-09-03T13:20:21.526Z,21.61
2018-09-03T13:22:50.702Z,21.75
2018-09-03T13:25:19.910Z,21.70
2018-09-03T13:27:49.131Z,21.69
2018-09-03T13:30:18.354Z,21.55
2018-09-03T13:32:47.530Z,21.62
2018-09-03T13:35:16.753Z,21.49
2018-09-03T13:37:45.947Z,21.28
2018-09-03T13:40:15.347Z,21.25
2018-09-03T13:42:44.526Z,21.40
2018-09-03T13:45:13.761Z,21.34
2018-09-03T13:47:42.952Z,21.39
2018-09-03T13:50:12.175Z,21.40
2018-09-03T13:52:41.455Z,21.40
2018-09-03T13:55:11.505Z,20.77
2018-09-03T13:57:40.684Z,21.48
2018-09-03T14:00:10.984Z,21.04
2018-09-03T14:02:40.293Z,21.05
2018-09-03T14:05:09.637Z,21.11
2018-09-03T14:07:38.917Z,21.16
2018-09-03T14:10:08.247Z,21.24
2018-09-03T14:12:37.462Z,21.29
2018-09-03T14:15:07.037Z,21.29
2018-09-03T14:17:36.287Z,21.49
2018-09-03T14:20:05.590Z,21.56
2018-09-03T14:22:34.753Z,21.58
2018-09-03T14:25:03.931Z,21.67
2018-09-03T14:27:33.137Z,21.64
2018-09-03T14:30:02.333Z,21.34
2018-09-03T14:32:31.606Z,21.12
2018-09-03T14:35:00.772Z,20.91
2018-09-03T14:37:30.186Z,20.80
2018-09-03T14:39:59.375Z,20.71
2018-09-03T14:42:28.579Z,20.67
2018-09-03T14:44:57.807Z,20.57
2018-09-03T14:47:27.050Z,20.57
2018-09-03T14:49:56.409Z,20.58
2018-09-03T14:52:25.784Z,20.43
2018-09-03T14:54:54.970Z,20.31
2018-09-03T14:57:24.142Z,20.24
2018-09-03T14:59:53.398Z,20.14
2018-09-03T15:02:22.550Z,20.09
2018-09-03T15:04:51.828Z,19.95
2018-09-03T15:07:21.017Z,19.89
2018-09-03T15:09:50.196Z,19.84
2018-09-03T15:12:19.406Z,19.76
2018-09-03T15:14:48.666Z,19.69
2018-09-03T15:17:17.773Z,19.67
2018-09-03T15:19:46.979Z,19.59
2018-09-03T15:22:16.165Z,19.55
2018-09-03T15:24:45.349Z,19.40
2018-09-03T15:27:14.556Z,19.28
2018-09-03T15:29:43.741Z,19.21
2018-09-03T15:32:12.933Z,19.24
2018-09-03T15:34:42.138Z,19.13
2018-09-03T15:37:11.430Z,19.11
2018-09-03T15:39:40.635Z,19.07
2018-09-03T15:42:09.841Z,19.06
2018-09-03T15:44:39.037Z,19.03
2018-09-03T15:47:08.392Z,18.97
2018-09-03T15:49:37.538Z,18.93
2018-09-03T15:52:06.750Z,18.88
2018-09-03T15:54:35.905Z,18.82
2018-09-03T15:57:05.179Z,18.79
2018-09-03T15:59:34.364Z,18.76
2018-09-03T16:02:04.185Z,18.74
2018-09-03T16:04:33.333Z,18.66
2018-09-03T16:07:02.500Z,18.65
2018-09-03T16:09:31.640Z,18.62
2018-09-03T16:12:00.810Z,18.56
2018-09-03T16:14:30.012Z,18.50
2018-09-03T16:16:59.394Z,18.45
2018-09-03T16:19:28.573Z,18.44
2018-09-03T16:21:57.812Z,18.40
2018-09-03T16:24:26.986Z,18.43
2018-09-03T16:26:56.166Z,18.37
2018-09-03T16:29:25.337Z,18.37
2018-09-03T16:31:54.619Z,18.39
2018-09-03T16:34:23.814Z,18.40
2018-09-03T16:36:54.352Z,18.40
2018-09-03T16:39:23.512Z,18.38
2018-09-03T16:41:52.674Z,18.39
2018-09-03T16:44:21.865Z,18.36
2018-09-03T16:46:51.042Z,18.35
2018-09-03T16:49:20.230Z,18.35
2018-09-03T16:51:49.434Z,18.35
2018-09-03T16:54:18.647Z,18.32
2018-09-03T16:56:47.832Z,18.31
2018-09-03T16:59:16.992Z,18.28
2018-09-03T17:01:46.170Z,18.28
2018-09-03T17:04:15.444Z,18.25
2018-09-03T17:06:44.681Z,18.23
2018-09-03T17:09:13.846Z,18.21
2018-09-03T17:11:43.041Z,18.20
2018-09-03T17:14:12.227Z,18.21
2018-09-03T17:16:41.391Z,18.24
2018-09-03T17:19:11.475Z,18.22
2018-09-03T17:21:40.661Z,18.24
2018-09-03T17:24:11.765Z,18.25
2018-09-03T17:26:40.917Z,18.25
2018-09-03T17:29:10.100Z,18.24
2018-09-03T17:31:39.307Z,18.26
2018-09-03T17:34:08.487Z,18.16
2018-09-03T17:36:37.705Z,18.04
2018-09-03T17:39:08.025Z,17.96
2018-09-03T17:41:37.183Z,17.84
2018-09-03T17:44:06.460Z,17.70
2018-09-03T17:46:35.647Z,17.53
2018-09-03T17:49:04.851Z,17.48
2018-09-03T17:51:34.020Z,17.43
2018-09-03T17:54:03.218Z,17.34
2018-09-03T17:56:32.381Z,17.27
2018-09-03T17:59:01.661Z,17.19
2018-09-03T18:01:30.965Z,17.13
2018-09-03T18:04:00.299Z,17.10
2018-09-03T18:06:29.482Z,17.09
2018-09-03T18:08:58.669Z,17.07
2018-09-03T18:11:28.313Z,17.06
2018-09-03T18:13:57.525Z,17.00
2018-09-03T18:16:26.843Z,16.99
2018-09-03T18:18:57.002Z,16.97
2018-09-03T18:21:26.214Z,16.97
2018-09-03T18:23:55.355Z,16.98
2018-09-03T18:26:25.663Z,16.97
2018-09-03T18:28:54.874Z,16.96
2018-09-03T18:31:24.874Z,16.95
2018-09-03T18:33:54.055Z,16.95
2018-09-03T18:36:23.226Z,16.94
2018-09-03T18:38:53.761Z,16.92
2018-09-03T18:41:22.923Z,16.89
2018-09-03T18:43:52.159Z,16.91
2018-09-03T18:46:21.313Z,16.89
2018-09-03T18:48:50.482Z,16.90
2018-09-03T18:51:19.729Z,16.85
2018-09-03T18:53:49.026Z,16.80
2018-09-03T18:56:18.195Z,16.80
2018-09-03T18:58:47.397Z,16.78
2018-09-03T19:01:16.537Z,16.75
2018-09-03T19:03:45.695Z,16.75
2018-09-03T19:06:14.968Z,16.76
2018-09-03T19:08:44.041Z,16.77
2018-09-03T19:11:14.683Z,16.75
2018-09-03T19:13:43.854Z,16.73
2018-09-03T19:16:13.017Z,16.72
2018-09-03T19:18:42.400Z,16.71
2018-09-03T19:21:11.560Z,16.69
2018-09-03T19:23:42.412Z,16.67
2018-09-03T19:26:11.619Z,16.66
2018-09-03T19:28:40.794Z,16.66
2018-09-03T19:31:09.998Z,16.64
2018-09-03T19:33:39.218Z,16.63
2018-09-03T19:36:08.417Z,16.59
2018-09-03T19:38:37.575Z,16.58
2018-09-03T19:41:07.017Z,16.59
2018-09-03T19:43:36.266Z,16.58
2018-09-03T19:46:05.432Z,16.58
2018-09-03T19:48:34.579Z,16.58
2018-09-03T19:51:03.749Z,16.58
2018-09-03T19:53:32.944Z,16.57
2018-09-03T19:56:02.049Z,16.56
2018-09-03T19:58:31.294Z,16.56
2018-09-03T20:01:00.480Z,16.54
2018-09-03T20:03:29.654Z,16.54
2018-09-03T20:05:58.890Z,16.55
2018-09-03T20:08:28.109Z,16.53
2018-09-03T20:10:57.225Z,16.51
2018-09-03T20:13:26.720Z,16.58
2018-09-03T20:15:55.912Z,16.60
2018-09-03T20:18:25.103Z,16.64
2018-09-03T20:20:54.281Z,16.68
2018-09-03T20:23:23.958Z,16.70
2018-09-03T20:25:53.217Z,16.70
2018-09-03T20:28:22.443Z,16.71
2018-09-03T20:30:51.574Z,16.74
2018-09-03T20:33:20.762Z,16.74
2018-09-03T20:35:49.956Z,16.73
2018-09-03T20:38:19.145Z,16.74
2018-09-03T20:40:48.319Z,16.75
2018-09-03T20:43:17.502Z,16.74
2018-09-03T20:45:46.656Z,16.77
2018-09-03T20:48:15.856Z,16.78
2018-09-03T20:50:45.056Z,16.83
2018-09-03T20:53:14.252Z,16.85
2018-09-03T20:55:43.619Z,16.86
2018-09-03T20:58:12.809Z,16.87
2018-09-03T21:00:42.030Z,16.90
2018-09-03T21:03:11.203Z,16.91
2018-09-03T21:05:40.368Z,16.93
2018-09-03T21:08:09.560Z,16.93
2018-09-03T21:10:38.702Z,16.96
2018-09-03T21:13:08.046Z,16.97
2018-09-03T21:15:37.401Z,16.96
2018-09-03T21:18:06.539Z,16.96
2018-09-03T21:20:35.718Z,16.97
2018-09-03T21:23:04.905Z,16.97
2018-09-03T21:25:34.046Z,17.01
2018-09-03T21:28:03.274Z,17.02
2018-09-03T21:30:32.420Z,16.98
2018-09-03T21:33:01.586Z,16.94
2018-09-03T21:35:30.791Z,16.95
2018-09-03T21:38:00.063Z,16.96
2018-09-03T21:40:29.223Z,16.90
2018-09-03T21:42:58.411Z,16.88
2018-09-03T21:45:27.569Z,16.83
2018-09-03T21:47:56.746Z,16.84
2018-09-03T21:50:25.896Z,16.82
2018-09-03T21:52:55.091Z,16.79
2018-09-03T21:55:24.233Z,16.76
2018-09-03T21:57:53.466Z,16.74
2018-09-03T22:00:22.687Z,16.72
2018-09-03T22:02:51.909Z,16.71
2018-09-03T22:05:21.118Z,16.72
2018-09-03T22:07:50.255Z,16.71
2018-09-03T22:10:19.481Z,16.70
2018-09-03T22:12:48.671Z,16.69
2018-09-03T22:15:17.837Z,16.67
2018-09-03T22:17:46.977Z,16.71
2018-09-03T22:20:16.179Z,16.71
2018-09-03T22:22:46.187Z,16.70
2018-09-03T22:25:15.381Z,16.72
2018-09-03T22:27:44.622Z,16.72
2018-09-03T22:30:13.860Z,16.70
2018-09-03T22:32:44.677Z,16.71
2018-09-03T22:35:14.035Z,16.76
2018-09-03T22:37:43.750Z,16.71
2018-09-03T22:40:12.904Z,16.76
2018-09-03T22:42:42.165Z,16.74
2018-09-03T22:45:11.541Z,16.68
2018-09-03T22:47:40.753Z,16.80
2018-09-03T22:50:09.972Z,16.79
2018-09-03T22:52:39.181Z,16.74
2018-09-03T22:55:08.569Z,16.66
2018-09-03T22:57:37.765Z,16.58
2018-09-03T23:00:07.050Z,16.54
2018-09-03T23:02:41.570Z,16.53
2018-09-03T23:05:12.320Z,16.48
2018-09-03T23:07:41.466Z,16.43
2018-09-03T23:10:10.946Z,16.37
2018-09-03T23:12:40.152Z,16.35
2018-09-03T23:15:09.915Z,16.34
2018-09-03T23:17:39.125Z,16.35
2018-09-03T23:20:08.355Z,16.39
2018-09-03T23:22:37.498Z,16.41
2018-09-03T23:25:06.959Z,16.43
2018-09-03T23:27:36.097Z,16.42
2018-09-03T23:30:05.449Z,16.44
2018-09-03T23:32:34.710Z,16.48
2018-09-03T23:35:04.050Z,16.48
2018-09-03T23:37:33.356Z,16.47
2018-09-03T23:40:02.961Z,16.50
2018-09-03T23:42:32.177Z,16.48
2018-09-03T23:45:01.408Z,16.45
2018-09-03T23:47:30.688Z,16.43
2018-09-03T23:49:59.965Z,16.45
2018-09-03T23:52:29.117Z,16.44
2018-09-03T23:54:58.341Z,16.45
2018-09-03T23:57:27.561Z,16.45
2018-09-03T23:59:56.777Z,16.45
